createdAt,value
2023-03-11T00:02:01.325Z,6.24
2023-03-11T00:04:34.824Z,6.23
2023-03-11T00:07:12.786Z,6.17
2023-03-11T00:09:45.855Z,6.16
2023-03-11T00:12:19.096Z,6.16
2023-03-11T00:14:52.443Z,6.19
2023-03-11T00:17:27.118Z,6.23
2023-03-11T00:20:00.464Z,6.18
2023-03-11T00:22:35.088Z,6.16
2023-03-11T00:25:09.321Z,6.15
2023-03-11T00:27:42.638Z,6.13
2023-03-11T00:30:16.819Z,6.15
2023-03-11T00:32:52.489Z,6.16
2023-03-11T00:35:30.406Z,6.21
2023-03-11T00:38:08.327Z,6.24
2023-03-11T00:40:42.258Z,6.24
2023-03-11T00:43:17.291Z,6.21
2023-03-11T00:45:50.738Z,6.15
2023-03-11T00:48:24.250Z,6.20
2023-03-11T00:50:58.249Z,6.25
2023-03-11T00:53:32.140Z,6.25
2023-03-11T00:56:14.049Z,6.25
2023-03-11T00:58:47.449Z,6.24
2023-03-11T01:01:23.039Z,6.22
2023-03-11T01:03:56.379Z,6.25
2023-03-11T01:06:43.134Z,6.27
2023-03-11T01:09:06.821Z,6.28
2023-03-11T01:11:40.948Z,6.30
2023-03-11T01:14:14.309Z,6.32
2023-03-11T01:16:47.961Z,6.31
2023-03-11T01:19:22.143Z,6.29
2023-03-11T01:21:55.341Z,6.31
2023-03-11T01:24:28.639Z,6.33
2023-03-11T01:27:02.678Z,6.33
2023-03-11T01:29:36.621Z,6.33
2023-03-11T01:32:11.606Z,6.33
2023-03-11T01:34:44.857Z,6.32
2023-03-11T01:37:20.579Z,6.33
2023-03-11T01:39:53.938Z,6.36
2023-03-11T01:42:27.187Z,6.39
2023-03-11T01:45:00.639Z,6.40
2023-03-11T01:47:40.156Z,6.36
2023-03-11T01:50:15.723Z,6.30
2023-03-11T01:52:49.079Z,6.31
2023-03-11T01:55:22.900Z,6.30
2023-03-11T01:57:56.889Z,6.32
2023-03-11T02:00:30.150Z,6.32
2023-03-11T02:03:14.502Z,6.32
2023-03-11T02:05:48.793Z,6.33
2023-03-11T02:08:22.486Z,6.35
2023-03-11T02:10:56.732Z,6.37
2023-03-11T02:13:30.752Z,6.34
2023-03-11T02:16:05.353Z,6.33
2023-03-11T02:18:39.710Z,6.28
2023-03-11T02:21:25.632Z,6.25
2023-03-11T02:24:28.235Z,6.23
2023-03-11T02:27:08.618Z,6.25
2023-03-11T02:29:43.952Z,6.28
2023-03-11T02:32:18.633Z,6.29
2023-03-11T02:34:52.018Z,6.29
2023-03-11T02:37:25.770Z,6.30
2023-03-11T02:40:23.294Z,6.29
2023-03-11T02:43:03.854Z,6.26
2023-03-11T02:45:40.419Z,6.25
2023-03-11T02:48:14.717Z,6.24
2023-03-11T02:50:49.002Z,6.22
2023-03-11T02:53:21.651Z,6.25
2023-03-11T02:55:55.258Z,6.25
2023-03-11T02:58:28.418Z,6.24
2023-03-11T03:01:02.085Z,6.26
2023-03-11T03:03:35.775Z,6.28
2023-03-11T03:06:10.091Z,6.30
2023-03-11T03:08:44.085Z,6.29
2023-03-11T03:11:17.706Z,6.28
2023-03-11T03:13:52.328Z,6.26
2023-03-11T03:16:25.721Z,6.22
2023-03-11T03:18:59.450Z,6.18
2023-03-11T03:21:33.289Z,6.13
2023-03-11T03:24:07.417Z,6.10
2023-03-11T03:26:41.358Z,6.07
2023-03-11T03:29:14.637Z,6.04
2023-03-11T03:31:48.371Z,6.01
2023-03-11T03:34:21.935Z,6.00
2023-03-11T03:36:55.726Z,6.01
2023-03-11T03:39:30.657Z,6.02
2023-03-11T03:42:04.067Z,6.01
2023-03-11T03:44:39.174Z,5.98
2023-03-11T03:47:13.102Z,5.92
2023-03-11T03:49:46.433Z,5.87
2023-03-11T03:52:20.017Z,5.82
2023-03-11T03:54:53.928Z,5.82
2023-03-11T03:57:27.015Z,5.84
2023-03-11T04:00:00.615Z,5.85
2023-03-11T04:02:35.803Z,5.87
2023-03-11T04:05:10.444Z,5.89
2023-03-11T04:07:44.553Z,5.89
2023-03-11T04:10:18.492Z,5.93
2023-03-11T04:12:51.812Z,5.93
2023-03-11T04:15:26.638Z,5.91
2023-03-11T04:18:00.581Z,5.88
2023-03-11T04:20:34.670Z,5.87
2023-03-11T04:23:07.997Z,5.90
2023-03-11T04:25:41.426Z,5.90
2023-03-11T04:28:15.132Z,5.91
2023-03-11T04:30:48.356Z,5.91
2023-03-11T04:33:22.249Z,5.94
2023-03-11T04:35:55.881Z,5.98
2023-03-11T04:38:29.478Z,6.04
2023-03-11T04:41:05.605Z,6.10
2023-03-11T04:43:42.069Z,6.18
2023-03-11T04:46:15.573Z,6.24
2023-03-11T04:48:48.983Z,6.31
2023-03-11T04:51:22.058Z,6.36
2023-03-11T04:53:55.408Z,6.39
2023-03-11T04:56:29.255Z,6.41
2023-03-11T04:59:03.909Z,6.47
2023-03-11T05:01:37.931Z,6.51
2023-03-11T05:04:13.503Z,6.55
2023-03-11T05:06:49.924Z,6.56
2023-03-11T05:09:23.709Z,6.60
2023-03-11T05:11:57.501Z,6.65
2023-03-11T05:14:31.452Z,6.67
2023-03-11T05:17:05.627Z,6.68
2023-03-11T05:19:39.695Z,6.74
2023-03-11T05:22:15.094Z,6.77
2023-03-11T05:24:49.386Z,6.79
2023-03-11T05:27:23.824Z,6.86
2023-03-11T05:29:58.882Z,6.91
2023-03-11T05:32:33.246Z,6.91
2023-03-11T05:35:08.145Z,6.96
2023-03-11T05:37:42.035Z,6.98
2023-03-11T05:40:16.076Z,7.00
2023-03-11T05:42:49.944Z,7.02
2023-03-11T05:45:23.578Z,7.09
2023-03-11T05:47:57.448Z,7.16
2023-03-11T05:50:31.502Z,7.24
2023-03-11T05:53:05.609Z,7.29
2023-03-11T05:55:39.029Z,7.35
2023-03-11T05:58:14.051Z,7.40
2023-03-11T06:00:48.172Z,7.48
2023-03-11T06:03:21.597Z,7.52
2023-03-11T06:05:56.169Z,7.54
2023-03-11T06:08:31.732Z,7.53
2023-03-11T06:11:09.019Z,7.59
2023-03-11T06:13:43.241Z,7.65
2023-03-11T06:16:18.127Z,7.65
2023-03-11T06:18:53.082Z,7.65
2023-03-11T06:21:27.757Z,7.65
2023-03-11T06:24:01.780Z,7.68
2023-03-11T06:26:35.899Z,7.70
2023-03-11T06:29:14.841Z,7.71
2023-03-11T06:31:48.683Z,7.74
2023-03-11T06:34:21.816Z,7.75
2023-03-11T06:36:56.075Z,7.76
2023-03-11T06:39:29.348Z,7.82
2023-03-11T06:42:05.917Z,7.92
2023-03-11T06:44:40.184Z,7.96
2023-03-11T06:47:13.735Z,8.02
2023-03-11T06:49:47.425Z,8.12
2023-03-11T06:52:22.438Z,8.26
2023-03-11T06:54:55.683Z,8.35
2023-03-11T06:57:31.260Z,8.40
2023-03-11T07:00:08.265Z,8.49
2023-03-11T07:02:42.880Z,8.55
2023-03-11T07:05:17.554Z,8.63
2023-03-11T07:07:53.465Z,8.74
2023-03-11T07:10:27.041Z,8.86
2023-03-11T07:13:04.928Z,8.95
2023-03-11T07:15:38.572Z,9.01
2023-03-11T07:18:11.887Z,9.10
2023-03-11T07:20:45.786Z,9.22
2023-03-11T07:23:20.653Z,9.33
2023-03-11T07:25:56.363Z,9.45
2023-03-11T07:28:30.800Z,9.55
2023-03-11T07:31:09.989Z,9.62
2023-03-11T07:33:44.978Z,9.67
2023-03-11T07:36:22.237Z,9.72
2023-03-11T07:39:04.618Z,9.79
2023-03-11T07:41:38.790Z,9.84
2023-03-11T07:44:18.284Z,9.86
2023-03-11T07:46:52.039Z,9.92
2023-03-11T07:49:25.448Z,10.01
2023-03-11T07:51:59.892Z,10.11
2023-03-11T07:54:33.792Z,10.21
2023-03-11T07:57:09.104Z,10.29
2023-03-11T07:59:42.634Z,10.40
2023-03-11T08:02:17.352Z,10.47
2023-03-11T08:04:51.309Z,10.59
2023-03-11T08:07:25.305Z,10.72
2023-03-11T08:09:59.680Z,10.82
2023-03-11T08:12:33.599Z,10.96
2023-03-11T08:15:08.175Z,11.10
2023-03-11T08:17:42.934Z,11.20
2023-03-11T08:20:16.499Z,11.32
2023-03-11T08:22:58.149Z,11.43
2023-03-11T08:25:27.340Z,11.49
2023-03-11T08:28:00.487Z,11.59
2023-03-11T08:30:34.644Z,11.67
2023-03-11T08:33:09.053Z,11.70
2023-03-11T08:35:42.897Z,11.72
2023-03-11T08:38:16.783Z,11.76
2023-03-11T08:40:50.016Z,11.83
2023-03-11T08:43:23.478Z,11.92
2023-03-11T08:45:56.853Z,11.98
2023-03-11T08:48:30.853Z,12.03
2023-03-11T08:51:04.211Z,12.06
2023-03-11T08:53:38.125Z,12.08
2023-03-11T08:56:12.420Z,12.06
2023-03-11T08:58:46.005Z,12.09
2023-03-11T09:01:20.525Z,12.10
2023-03-11T09:03:54.682Z,12.13
2023-03-11T09:06:27.658Z,12.18
2023-03-11T09:09:01.355Z,12.19
2023-03-11T09:11:37.150Z,12.17
2023-03-11T09:14:11.364Z,12.17
2023-03-11T09:16:46.737Z,12.17
2023-03-11T09:19:21.662Z,12.15
2023-03-11T09:21:55.214Z,12.08
2023-03-11T09:24:28.585Z,12.01
2023-03-11T09:27:05.513Z,11.94
2023-03-11T09:29:40.681Z,11.91
2023-03-11T09:32:14.688Z,11.91
2023-03-11T09:34:50.088Z,11.93
2023-03-11T09:37:23.737Z,11.99
2023-03-11T09:39:56.946Z,12.04
2023-03-11T09:42:46.861Z,12.07
2023-03-11T09:45:35.206Z,12.13
2023-03-11T09:48:25.818Z,12.20
2023-03-11T09:51:11.712Z,12.27
2023-03-11T09:53:47.271Z,12.31
2023-03-11T09:56:22.829Z,12.38
2023-03-11T09:59:06.062Z,12.43
2023-03-11T10:01:45.031Z,12.46
2023-03-11T10:04:46.197Z,12.42
2023-03-11T10:07:23.286Z,12.39
2023-03-11T10:10:01.257Z,12.35
2023-03-11T10:12:54.003Z,12.30
2023-03-11T10:15:34.865Z,12.27
2023-03-11T10:18:19.985Z,12.24
2023-03-11T10:21:15.915Z,12.21
2023-03-11T10:24:05.128Z,12.17
2023-03-11T10:26:48.870Z,12.08
2023-03-11T10:29:26.609Z,12.01
2023-03-11T10:32:16.610Z,11.97
2023-03-11T10:35:19.944Z,11.91
2023-03-11T10:38:03.329Z,11.84
2023-03-11T10:40:45.784Z,11.77
2023-03-11T10:43:38.540Z,11.70
2023-03-11T10:46:29.046Z,11.61
2023-03-11T10:49:02.763Z,11.56
2023-03-11T10:51:39.337Z,11.52
2023-03-11T10:54:26.758Z,11.50
2023-03-11T10:57:06.115Z,11.45
2023-03-11T10:59:52.834Z,11.44
2023-03-11T11:02:34.960Z,11.39
2023-03-11T11:05:24.712Z,11.34
2023-03-11T11:08:18.042Z,11.28
2023-03-11T11:10:55.733Z,11.27
2023-03-11T11:13:34.822Z,11.26
2023-03-11T11:16:21.345Z,11.19
2023-03-11T11:19:13.724Z,11.17
2023-03-11T11:21:52.666Z,11.20
2023-03-11T11:24:30.388Z,11.23
2023-03-11T11:27:22.262Z,11.27
2023-03-11T11:30:16.832Z,11.32
2023-03-11T11:32:52.246Z,11.36
2023-03-11T11:35:27.367Z,11.38
2023-03-11T11:38:05.624Z,11.41
2023-03-11T11:40:40.437Z,11.46
2023-03-11T11:43:40.146Z,11.48
2023-03-11T11:46:41.582Z,11.54
2023-03-11T11:49:33.561Z,11.59
2023-03-11T11:52:22.084Z,11.66
2023-03-11T11:55:02.388Z,11.71
2023-03-11T11:57:37.201Z,11.76
2023-03-11T12:00:21.407Z,11.83
2023-03-11T12:03:36.768Z,11.89
2023-03-11T12:06:32.646Z,11.96
2023-03-11T12:09:32.788Z,12.06
2023-03-11T12:12:43.953Z,12.13
2023-03-11T12:15:30.770Z,12.23
2023-03-11T12:18:07.369Z,12.31
2023-03-11T12:20:50.500Z,12.37
2023-03-11T12:23:43.245Z,12.39
2023-03-11T12:26:23.018Z,12.43
2023-03-11T12:29:06.247Z,12.48
2023-03-11T12:31:42.048Z,12.56
2023-03-11T12:34:17.891Z,12.65
2023-03-11T12:36:52.221Z,12.74
2023-03-11T12:39:36.362Z,12.81
2023-03-11T12:42:20.982Z,12.88
2023-03-11T12:44:54.285Z,12.97
2023-03-11T12:47:29.376Z,13.03
2023-03-11T12:50:15.611Z,13.10
2023-03-11T12:52:57.494Z,13.22
2023-03-11T12:55:35.404Z,13.24
2023-03-11T12:58:41.311Z,13.36
2023-03-11T13:01:32.175Z,13.50
2023-03-11T13:04:21.654Z,13.66
2023-03-11T13:07:15.956Z,13.78
2023-03-11T13:10:17.788Z,13.84
2023-03-11T13:12:54.230Z,13.88
2023-03-11T13:15:38.905Z,13.92
2023-03-11T13:18:30.809Z,13.98
2023-03-11T13:21:05.646Z,14.03
2023-03-11T13:23:40.812Z,14.10
2023-03-11T13:26:24.825Z,14.14
2023-03-11T13:29:39.526Z,14.15
2023-03-11T13:33:00.303Z,14.14
2023-03-11T13:36:01.811Z,14.09
2023-03-11T13:38:57.716Z,14.04
2023-03-11T13:41:37.504Z,14.01
2023-03-11T13:44:27.356Z,13.98
2023-03-11T13:47:14.409Z,13.95
2023-03-11T13:50:11.641Z,13.91
2023-03-11T13:52:54.775Z,13.84
2023-03-11T13:55:46.815Z,13.78
2023-03-11T13:58:29.534Z,13.73
2023-03-11T14:01:03.943Z,13.67
2023-03-11T14:03:44.155Z,13.65
2023-03-11T14:06:20.159Z,13.64
2023-03-11T14:08:58.858Z,13.63
2023-03-11T14:11:32.315Z,13.60
2023-03-11T14:14:10.957Z,13.57
2023-03-11T14:16:47.395Z,13.54
2023-03-11T14:19:22.398Z,13.51
2023-03-11T14:21:59.141Z,13.49
2023-03-11T14:24:33.840Z,13.49
2023-03-11T14:27:10.682Z,13.49
2023-03-11T14:29:45.810Z,13.51
2023-03-11T14:32:32.549Z,13.50
2023-03-11T14:35:21.197Z,13.50
2023-03-11T14:37:54.808Z,13.49
2023-03-11T14:40:42.095Z,13.48
2023-03-11T14:43:15.158Z,13.46
2023-03-11T14:45:48.539Z,13.45
2023-03-11T14:48:35.231Z,13.45
2023-03-11T14:51:25.113Z,13.44
2023-03-11T14:54:08.652Z,13.42
2023-03-11T14:56:43.644Z,13.40
2023-03-11T14:59:25.536Z,13.39
2023-03-11T15:02:02.875Z,13.35
2023-03-11T15:04:38.549Z,13.30
2023-03-11T15:07:11.669Z,13.25
2023-03-11T15:09:45.597Z,13.19
2023-03-11T15:12:43.363Z,13.14
2023-03-11T15:15:31.205Z,13.10
2023-03-11T15:18:04.985Z,13.04
2023-03-11T15:20:40.117Z,12.98
2023-03-11T15:23:17.916Z,12.91
2023-03-11T15:25:51.956Z,12.83
2023-03-11T15:28:30.766Z,12.75
2023-03-11T15:31:29.414Z,12.68
2023-03-11T15:34:22.530Z,12.59
2023-03-11T15:37:01.713Z,12.52
2023-03-11T15:39:39.682Z,12.45
2023-03-11T15:42:24.747Z,12.40
2023-03-11T15:45:20.952Z,12.33
2023-03-11T15:47:53.567Z,12.24
2023-03-11T15:50:43.050Z,12.15
2023-03-11T15:53:05.244Z,12.08
2023-03-11T15:55:40.386Z,12.01
2023-03-11T15:58:16.954Z,11.91
2023-03-11T16:00:55.294Z,11.84
2023-03-11T16:03:31.192Z,11.75
2023-03-11T16:06:03.254Z,11.67
2023-03-11T16:08:36.765Z,11.62
2023-03-11T16:11:13.813Z,11.54
2023-03-11T16:13:49.952Z,11.48
2023-03-11T16:16:23.490Z,11.41
2023-03-11T16:18:56.870Z,11.35
2023-03-11T16:21:36.803Z,11.27
2023-03-11T16:24:11.730Z,11.19
2023-03-11T16:26:45.279Z,11.07
2023-03-11T16:29:19.581Z,10.98
2023-03-11T16:31:54.946Z,10.88
2023-03-11T16:34:28.592Z,10.77
2023-03-11T16:37:01.965Z,10.67
2023-03-11T16:39:37.795Z,10.63
2023-03-11T16:42:11.122Z,10.55
2023-03-11T16:44:44.867Z,10.48
2023-03-11T16:47:18.294Z,10.42
2023-03-11T16:49:53.144Z,10.36
2023-03-11T16:52:26.604Z,10.34
2023-03-11T16:54:59.868Z,10.35
2023-03-11T16:57:33.498Z,10.33
2023-03-11T17:00:10.333Z,10.30
2023-03-11T17:02:45.361Z,10.23
2023-03-11T17:05:19.165Z,10.20
2023-03-11T17:07:59.564Z,10.20
2023-03-11T17:10:43.644Z,10.16
2023-03-11T17:13:19.045Z,10.12
2023-03-11T17:16:01.358Z,10.10
2023-03-11T17:18:35.154Z,10.07
2023-03-11T17:21:14.778Z,10.04
2023-03-11T17:23:47.703Z,10.01
2023-03-11T17:26:21.124Z,10.02
2023-03-11T17:28:54.654Z,10.04
2023-03-11T17:31:27.468Z,10.05
2023-03-11T17:34:01.791Z,10.05
2023-03-11T17:36:35.575Z,10.02
2023-03-11T17:39:08.536Z,10.02
2023-03-11T17:41:42.205Z,9.96
2023-03-11T17:44:15.741Z,9.89
2023-03-11T17:46:48.635Z,9.85
2023-03-11T17:49:24.660Z,9.81
2023-03-11T17:51:58.653Z,9.78
2023-03-11T17:54:32.743Z,9.78
2023-03-11T17:57:05.943Z,9.76
2023-03-11T17:59:39.258Z,9.73
2023-03-11T18:02:15.408Z,9.69
2023-03-11T18:04:54.205Z,9.67
2023-03-11T18:07:27.026Z,9.67
2023-03-11T18:10:00.461Z,9.65
2023-03-11T18:12:33.502Z,9.65
2023-03-11T18:15:10.656Z,9.66
2023-03-11T18:17:44.052Z,9.60
2023-03-11T18:20:17.375Z,9.58
2023-03-11T18:22:50.051Z,9.60
2023-03-11T18:25:22.846Z,9.61
2023-03-11T18:27:55.682Z,9.62
2023-03-11T18:30:28.575Z,9.62
2023-03-11T18:33:02.092Z,9.58
2023-03-11T18:35:35.126Z,9.55
2023-03-11T18:38:09.144Z,9.54
2023-03-11T18:40:43.217Z,9.50
2023-03-11T18:43:16.577Z,9.54
2023-03-11T18:45:50.006Z,9.53
2023-03-11T18:48:23.811Z,9.53
2023-03-11T18:50:57.456Z,9.55
2023-03-11T18:53:31.254Z,9.56
2023-03-11T18:56:08.670Z,9.55
2023-03-11T18:58:42.270Z,9.58
2023-03-11T19:02:27.862Z,9.56
2023-03-11T19:05:01.756Z,9.56
2023-03-11T19:07:35.016Z,9.59
2023-03-11T19:10:11.544Z,9.59
2023-03-11T19:12:45.907Z,9.60
2023-03-11T19:15:19.818Z,9.56
2023-03-11T19:18:05.876Z,9.56
2023-03-11T19:20:30.865Z,9.53
2023-03-11T19:23:05.634Z,9.50
2023-03-11T19:25:39.393Z,9.45
2023-03-11T19:28:12.377Z,9.41
2023-03-11T19:30:45.560Z,9.35
2023-03-11T19:33:19.171Z,9.31
2023-03-11T19:35:58.483Z,9.22
2023-03-11T19:38:32.590Z,9.14
2023-03-11T19:41:07.007Z,9.08
2023-03-11T19:43:39.637Z,9.02
2023-03-11T19:46:20.234Z,8.96
2023-03-11T19:48:55.020Z,8.95
2023-03-11T19:51:32.963Z,8.91
2023-03-11T19:54:02.523Z,8.90
2023-03-11T19:56:36.092Z,8.88
2023-03-11T19:59:09.427Z,8.88
2023-03-11T20:01:45.502Z,8.86
2023-03-11T20:04:19.391Z,8.83
2023-03-11T20:06:53.426Z,8.84
2023-03-11T20:09:26.156Z,8.87
2023-03-11T20:12:00.824Z,8.88
2023-03-11T20:14:34.696Z,8.84
2023-03-11T20:17:08.357Z,8.78
2023-03-11T20:19:41.847Z,8.73
2023-03-11T20:22:15.535Z,8.71
2023-03-11T20:24:50.337Z,8.67
2023-03-11T20:27:23.615Z,8.65
2023-03-11T20:29:57.689Z,8.65
2023-03-11T20:32:31.398Z,8.64
2023-03-11T20:35:05.034Z,8.68
2023-03-11T20:37:39.172Z,8.64
2023-03-11T20:40:14.428Z,8.62
2023-03-11T20:42:48.330Z,8.62
2023-03-11T20:45:23.844Z,8.64
2023-03-11T20:47:57.685Z,8.66
2023-03-11T20:50:31.864Z,8.63
2023-03-11T20:53:06.163Z,8.64
2023-03-11T20:55:44.031Z,8.65
2023-03-11T20:58:16.885Z,8.65
2023-03-11T21:00:49.859Z,8.63
2023-03-11T21:03:23.224Z,8.63
2023-03-11T21:05:56.094Z,8.62
2023-03-11T21:08:28.972Z,8.63
2023-03-11T21:11:03.815Z,8.65
2023-03-11T21:13:37.056Z,8.66
2023-03-11T21:16:11.697Z,8.68
2023-03-11T21:18:46.215Z,8.73
2023-03-11T21:21:20.513Z,8.74
2023-03-11T21:23:53.517Z,8.76
2023-03-11T21:26:26.433Z,8.79
2023-03-11T21:28:59.970Z,8.83
2023-03-11T21:31:33.188Z,8.87
2023-03-11T21:34:06.060Z,8.86
2023-03-11T21:36:39.877Z,8.87
2023-03-11T21:39:14.886Z,8.84
2023-03-11T21:41:47.880Z,8.83
2023-03-11T21:44:21.685Z,8.85
2023-03-11T21:46:54.778Z,8.86
2023-03-11T21:49:28.935Z,8.86
2023-03-11T21:52:02.512Z,8.86
2023-03-11T21:54:35.533Z,8.88
2023-03-11T21:57:09.084Z,8.87
2023-03-11T21:59:42.139Z,8.87
2023-03-11T22:02:17.763Z,8.88
2023-03-11T22:04:51.201Z,8.92
2023-03-11T22:07:24.411Z,8.95
2023-03-11T22:09:57.746Z,8.95
2023-03-11T22:12:31.370Z,8.95
2023-03-11T22:15:04.527Z,8.88
2023-03-11T22:17:39.352Z,8.85
2023-03-11T22:20:13.569Z,8.88
2023-03-11T22:22:46.683Z,8.86
2023-03-11T22:25:20.662Z,8.82
2023-03-11T22:27:53.578Z,8.82
2023-03-11T22:30:26.755Z,8.84
2023-03-11T22:33:01.103Z,8.90
2023-03-11T22:35:34.443Z,8.94
2023-03-11T22:38:09.656Z,8.97
2023-03-11T22:40:43.933Z,9.01
2023-03-11T22:43:17.061Z,9.04
2023-03-11T22:45:49.936Z,9.07
2023-03-11T22:48:23.049Z,9.08
2023-03-11T22:50:56.149Z,9.12
2023-03-11T22:53:29.103Z,9.15
2023-03-11T22:56:02.340Z,9.18
2023-03-11T22:58:35.855Z,9.23
2023-03-11T23:01:09.619Z,9.28
2023-03-11T23:03:44.522Z,9.33
2023-03-11T23:06:21.282Z,9.38
2023-03-11T23:08:54.458Z,9.38
2023-03-11T23:11:28.113Z,9.38
2023-03-11T23:14:01.660Z,9.39
2023-03-11T23:16:34.690Z,9.42
2023-03-11T23:19:09.116Z,9.43
2023-03-11T23:21:42.826Z,9.46
2023-03-11T23:24:15.548Z,9.46
2023-03-11T23:26:48.494Z,9.44
2023-03-11T23:29:21.758Z,9.43
2023-03-11T23:31:55.241Z,9.40
2023-03-11T23:34:29.473Z,9.41
2023-03-11T23:37:05.023Z,9.43
2023-03-11T23:39:36.004Z,9.43
2023-03-11T23:42:24.500Z,9.43
2023-03-11T23:44:44.191Z,9.39
2023-03-11T23:47:17.545Z,9.38
2023-03-11T23:49:50.532Z,9.36
2023-03-11T23:52:23.720Z,9.36
2023-03-11T23:54:57.490Z,9.38
2023-03-11T23:57:30.464Z,9.39
